Time;durP1;ratioP1;P1;durP2;ratioP2;P2;SDS_P1;SDS_P2;PMS_P1;PMS_P2;Temp;Humidity;BMP_temperature;BMP_pressure;BME280_temperature;BME280_humidity;BME280_pressure;Samples;Min_cycle;Max_cycle;Signal;HPM_P1;HPM_P2
2021/12/13 00:00:17;;;;;;;0.77;0.77;;;6.60;99.90;;;;;;4871243;29;20185;-80
2021/12/13 00:02:55;;;;;;;0.20;0.20;;;6.50;99.90;;;;;;4873772;29;20181;-80
2021/12/13 00:05:28;;;;;;;1.37;0.73;;;6.40;99.90;;;;;;4863508;29;20209;-80
2021/12/13 00:08:02;;;;;;;1.33;0.70;;;6.50;99.90;;;;;;4867968;29;20239;-80
2021/12/13 00:10:36;;;;;;;0.20;0.20;;;6.70;99.90;;;;;;4876403;29;20228;-80
2021/12/13 00:13:11;;;;;;;0.77;0.50;;;6.80;99.90;;;;;;4871900;29;20234;-80
2021/12/13 00:15:48;;;;;;;1.10;0.60;;;6.90;99.90;;;;;;4871683;29;20220;-80
2021/12/13 00:18:18;;;;;;;1.13;0.67;;;6.80;99.90;;;;;;4867569;29;20228;-80
2021/12/13 00:20:50;;;;;;;0.50;0.50;;;6.80;99.90;;;;;;4866646;29;20546;-80
2021/12/13 00:23:21;;;;;;;0.70;0.70;;;6.70;99.90;;;;;;4869562;29;20182;-80
2021/12/13 00:25:50;;;;;;;0.60;0.60;;;6.50;99.90;;;;;;4865557;29;20186;-79
2021/12/13 00:28:19;;;;;;;1.17;0.57;;;6.40;99.90;;;;;;4867277;29;20579;-80
2021/12/13 00:31:14;;;;;;;0.70;0.53;;;6.60;99.90;;;;;;4869705;29;20199;-80
2021/12/13 00:33:54;;;;;;;0.53;0.50;;;6.70;99.90;;;;;;4874780;29;20196;-81
2021/12/13 00:36:43;;;;;;;0.67;0.60;;;6.90;99.90;;;;;;4876722;29;20710;-80
2021/12/13 00:39:22;;;;;;;0.73;0.53;;;7.00;99.90;;;;;;4872763;29;20186;-80
2021/12/13 00:41:49;;;;;;;1.07;0.40;;;6.90;99.90;;;;;;4873536;29;20185;-80
2021/12/13 00:44:34;;;;;;;0.40;0.40;;;7.00;99.90;;;;;;4872899;29;20183;-80
2021/12/13 00:47:06;;;;;;;0.30;0.30;;;7.10;99.90;;;;;;4872093;29;20579;-80
2021/12/13 00:49:35;;;;;;;0.40;0.40;;;7.20;99.90;;;;;;4869971;29;20192;-80
2021/12/13 00:52:02;;;;;;;0.80;0.80;;;7.20;99.90;;;;;;4871214;29;20193;-80
2021/12/13 00:54:37;;;;;;;0.50;0.50;;;7.20;99.90;;;;;;4866976;29;20334;-80
2021/12/13 00:57:03;;;;;;;0.77;0.47;;;7.30;99.90;;;;;;4870820;29;20686;-80
2021/12/13 00:59:42;;;;;;;0.77;0.50;;;7.30;99.90;;;;;;4868582;29;20259;-80
2021/12/13 01:02:28;;;;;;;0.77;0.63;;;7.40;99.90;;;;;;4872869;29;20596;-80
2021/12/13 01:05:00;;;;;;;0.33;0.33;;;7.30;99.90;;;;;;4869226;29;20208;-80
2021/12/13 01:07:59;;;;;;;0.80;0.80;;;7.40;99.90;;;;;;4865134;29;20683;-80
2021/12/13 01:10:50;;;;;;;0.30;0.30;;;7.40;99.90;;;;;;4867773;29;20201;-80
2021/12/13 01:13:24;;;;;;;0.20;0.20;;;7.50;99.90;;;;;;4866644;29;20221;-81
2021/12/13 01:16:15;;;;;;;0.40;0.40;;;7.50;99.90;;;;;;4873382;29;20299;-80
2021/12/13 01:19:27;;;;;;;2.27;1.20;;;7.50;99.90;;;;;;4870951;29;20199;-80
2021/12/13 01:21:59;;;;;;;0.40;0.40;;;7.60;99.90;;;;;;4856795;29;20193;-80
2021/12/13 01:27:42;;;;;;;0.70;0.70;;;7.60;99.90;;;;;;4874782;29;20216;-80
2021/12/13 01:30:11;;;;;;;1.17;1.07;;;7.60;99.90;;;;;;4865745;29;20190;-80
2021/12/13 01:32:41;;;;;;;0.40;0.40;;;7.50;99.90;;;;;;4877159;29;20203;-80
2021/12/13 01:35:11;;;;;;;0.30;0.30;;;7.50;99.90;;;;;;4866111;29;20183;-80
2021/12/13 01:37:37;;;;;;;1.60;0.37;;;7.60;99.90;;;;;;4876950;29;20224;-80
2021/12/13 01:40:12;;;;;;;0.93;0.90;;;7.50;99.90;;;;;;4876996;29;20186;-80
2021/12/13 01:42:38;;;;;;;0.83;0.40;;;7.30;99.90;;;;;;4877238;29;20213;-80
2021/12/13 01:45:12;;;;;;;2.33;1.13;;;7.10;99.90;;;;;;4872766;29;20609;-80
2021/12/13 01:47:42;;;;;;;1.33;1.20;;;7.10;99.90;;;;;;4879013;29;20215;-80
2021/12/13 01:50:17;;;;;;;0.57;0.57;;;7.10;99.90;;;;;;4878465;29;20231;-80
2021/12/13 01:52:45;;;;;;;0.30;0.30;;;7.10;99.90;;;;;;4874303;29;20185;-80
2021/12/13 01:55:16;;;;;;;0.30;0.30;;;7.20;99.90;;;;;;4869165;29;20318;-80
2021/12/13 01:57:48;;;;;;;0.63;0.63;;;7.20;99.90;;;;;;4872374;29;20249;-80
2021/12/13 02:01:09;;;;;;;1.17;0.97;;;7.10;99.90;;;;;;4876543;29;20192;-80
2021/12/13 02:03:54;;;;;;;0.50;0.40;;;7.00;99.90;;;;;;4867397;29;20203;-80
2021/12/13 02:06:45;;;;;;;0.97;0.60;;;6.90;99.90;;;;;;4876020;29;20204;-80
2021/12/13 02:09:25;;;;;;;0.40;0.40;;;6.90;99.90;;;;;;4873119;29;20204;-80
2021/12/13 02:11:55;;;;;;;0.37;0.37;;;6.70;99.90;;;;;;4871043;29;20330;-80
2021/12/13 02:14:28;;;;;;;0.60;0.60;;;6.70;99.90;;;;;;4869187;29;20188;-80
2021/12/13 02:17:14;;;;;;;0.50;0.47;;;6.70;99.90;;;;;;4873162;29;20216;-80
2021/12/13 02:19:43;;;;;;;0.60;0.60;;;6.60;99.90;;;;;;4876910;29;20249;-80
2021/12/13 02:22:35;;;;;;;1.50;0.50;;;6.70;99.90;;;;;;4875962;29;20248;-80
2021/12/13 02:25:11;;;;;;;1.03;0.40;;;6.70;99.90;;;;;;4873521;29;20228;-80
2021/12/13 02:27:39;;;;;;;0.60;0.60;;;6.80;99.90;;;;;;4869967;29;20207;-80
2021/12/13 02:30:14;;;;;;;0.87;0.73;;;7.00;99.90;;;;;;4870311;29;20226;-80
2021/12/13 02:32:43;;;;;;;0.70;0.70;;;6.90;99.90;;;;;;4863777;29;20188;-80
2021/12/13 02:35:10;;;;;;;0.70;0.70;;;6.70;99.90;;;;;;4872074;29;20185;-81
2021/12/13 02:37:36;;;;;;;0.97;0.87;;;6.70;99.90;;;;;;4877380;29;20586;-80
2021/12/13 02:40:05;;;;;;;0.37;0.37;;;6.50;99.90;;;;;;4872558;29;20184;-80
2021/12/13 02:42:31;;;;;;;0.27;0.27;;;6.50;99.90;;;;;;4866567;29;20196;-80
2021/12/13 02:45:12;;;;;;;0.53;0.53;;;6.50;99.90;;;;;;4880627;29;20223;-80
2021/12/13 02:47:42;;;;;;;0.70;0.70;;;6.60;99.90;;;;;;4869527;29;20237;-80
2021/12/13 02:50:14;;;;;;;0.50;0.50;;;6.50;99.90;;;;;;4870356;29;20180;-81
2021/12/13 02:52:40;;;;;;;0.13;0.13;;;6.60;99.90;;;;;;4876800;29;20184;-80
2021/12/13 02:55:13;;;;;;;0.30;0.30;;;6.70;99.90;;;;;;4868931;29;20321;-80
2021/12/13 02:57:43;;;;;;;0.40;0.40;;;6.60;99.90;;;;;;4871816;29;20235;-80
2021/12/13 03:00:26;;;;;;;1.13;0.63;;;6.80;99.90;;;;;;4876951;29;20192;-80
2021/12/13 03:02:55;;;;;;;0.83;0.63;;;6.90;99.90;;;;;;4872440;29;20189;-80
2021/12/13 03:05:27;;;;;;;1.20;0.77;;;7.00;99.90;;;;;;4870997;29;20191;-80
2021/12/13 03:07:56;;;;;;;0.60;0.60;;;7.10;99.90;;;;;;4866257;29;20591;-80
2021/12/13 03:10:31;;;;;;;0.30;0.30;;;7.20;99.90;;;;;;4872487;29;20186;-80
2021/12/13 03:12:57;;;;;;;1.57;0.70;;;7.20;99.90;;;;;;4868037;29;20191;-80
2021/12/13 03:15:26;;;;;;;0.40;0.37;;;7.20;99.90;;;;;;4869330;29;20719;-80
2021/12/13 03:18:15;;;;;;;1.17;1.13;;;6.90;99.90;;;;;;4874445;29;20219;-80
2021/12/13 03:20:49;;;;;;;0.77;0.77;;;6.70;99.90;;;;;;4875266;29;20216;-80
2021/12/13 03:23:48;;;;;;;0.93;0.50;;;6.80;99.90;;;;;;4871761;29;20186;-80
2021/12/13 03:26:54;;;;;;;1.40;0.53;;;6.90;99.90;;;;;;4873916;29;20184;-80
2021/12/13 03:29:25;;;;;;;0.37;0.33;;;7.00;99.90;;;;;;4868612;29;20250;-80
2021/12/13 03:31:55;;;;;;;0.83;0.80;;;7.20;99.90;;;;;;4876058;29;20231;-80
2021/12/13 03:34:23;;;;;;;0.30;0.30;;;7.20;99.90;;;;;;4874675;29;20544;-80
2021/12/13 03:36:59;;;;;;;1.30;0.47;;;7.20;99.90;;;;;;4872555;29;20252;-80
2021/12/13 03:39:57;;;;;;;0.93;0.90;;;7.00;99.90;;;;;;4876322;29;20188;-80
2021/12/13 03:42:36;;;;;;;4.23;2.17;;;6.80;99.90;;;;;;4866907;29;20648;-81
2021/12/13 03:45:14;;;;;;;0.87;0.50;;;6.70;99.90;;;;;;4867834;29;20236;-80
2021/12/13 03:47:44;;;;;;;0.67;0.67;;;6.50;99.90;;;;;;4875364;29;20212;-80
2021/12/13 03:50:15;;;;;;;0.20;0.20;;;6.40;99.90;;;;;;4870085;29;20195;-80
2021/12/13 03:52:43;;;;;;;0.70;0.70;;;6.60;99.90;;;;;;4877605;29;21476;-80
2021/12/13 03:55:12;;;;;;;0.70;0.70;;;6.80;99.90;;;;;;4866575;29;20192;-80
2021/12/13 03:57:45;;;;;;;1.00;1.00;;;6.90;99.90;;;;;;4873555;29;20307;-80
2021/12/13 04:00:15;;;;;;;0.10;0.10;;;6.90;99.90;;;;;;4872555;29;20188;-80
2021/12/13 04:02:41;;;;;;;1.80;0.70;;;7.00;99.90;;;;;;4867930;29;20243;-80
2021/12/13 04:05:13;;;;;;;0.83;0.67;;;7.10;99.90;;;;;;4871781;29;20204;-81
2021/12/13 04:07:43;;;;;;;0.17;0.17;;;7.20;99.90;;;;;;4870384;29;20215;-80
2021/12/13 04:10:32;;;;;;;0.40;0.37;;;7.20;99.90;;;;;;4868543;29;20195;-80
2021/12/13 04:13:01;;;;;;;0.67;0.50;;;7.20;99.90;;;;;;4867193;29;20183;-80
2021/12/13 04:15:48;;;;;;;0.60;0.60;;;7.20;99.90;;;;;;4867462;29;20233;-80
2021/12/13 04:19:06;;;;;;;0.37;0.37;;;7.30;99.90;;;;;;4876315;29;20223;-80
2021/12/13 04:21:58;;;;;;;0.10;0.10;;;7.30;99.90;;;;;;4872418;29;20532;-81
2021/12/13 04:24:30;;;;;;;0.53;0.53;;;7.40;99.90;;;;;;4877814;29;20553;-80
2021/12/13 04:27:00;;;;;;;0.73;0.57;;;7.40;99.90;;;;;;4868036;29;20203;-81
2021/12/13 04:29:31;;;;;;;0.67;0.60;;;7.40;99.90;;;;;;4876801;29;20607;-80
2021/12/13 04:31:58;;;;;;;0.40;0.30;;;7.50;99.90;;;;;;4867431;29;20640;-80
2021/12/13 04:34:27;;;;;;;0.73;0.67;;;7.50;99.90;;;;;;4866354;29;20188;-81
2021/12/13 04:36:55;;;;;;;0.23;0.23;;;7.60;99.90;;;;;;4869222;29;20300;-81
2021/12/13 04:39:33;;;;;;;0.30;0.30;;;7.50;99.90;;;;;;4868535;29;20200;-80
2021/12/13 04:42:10;;;;;;;1.43;0.40;;;7.40;99.90;;;;;;4868662;29;20195;-80
2021/12/13 04:44:50;;;;;;;0.70;0.70;;;7.50;99.90;;;;;;4868886;29;20232;-80
2021/12/13 04:47:55;;;;;;;0.40;0.40;;;7.50;99.90;;;;;;4868653;29;20214;-80
2021/12/13 04:50:25;;;;;;;0.30;0.30;;;7.50;99.90;;;;;;4872087;29;20239;-80
2021/12/13 04:52:52;;;;;;;0.93;0.30;;;7.60;99.90;;;;;;4873869;29;20185;-80
2021/12/13 04:55:23;;;;;;;0.40;0.40;;;7.50;99.90;;;;;;4870763;29;20196;-80
2021/12/13 04:57:51;;;;;;;0.77;0.77;;;7.50;99.90;;;;;;4869959;29;20734;-80
2021/12/13 05:00:21;;;;;;;0.40;0.40;;;7.40;99.90;;;;;;4870163;29;20192;-81
2021/12/13 05:02:58;;;;;;;0.60;0.60;;;7.40;99.90;;;;;;4872846;29;20188;-80
2021/12/13 05:05:26;;;;;;;0.80;0.80;;;7.40;99.90;;;;;;4872846;29;20186;-81
2021/12/13 05:07:52;;;;;;;0.70;0.70;;;7.30;99.90;;;;;;4868488;29;20216;-80
2021/12/13 05:10:18;;;;;;;1.57;0.60;;;7.30;99.90;;;;;;4876443;29;20198;-80
2021/12/13 05:13:05;;;;;;;0.90;0.83;;;7.30;99.90;;;;;;4876173;29;20244;-80
2021/12/13 05:15:31;;;;;;;0.53;0.53;;;7.40;99.90;;;;;;4870096;29;20219;-80
2021/12/13 05:18:02;;;;;;;1.70;1.60;;;7.40;99.90;;;;;;4878972;29;20931;-80
2021/12/13 05:20:32;;;;;;;0.43;0.43;;;7.30;99.90;;;;;;4875071;29;20268;-80
2021/12/13 05:23:26;;;;;;;0.90;0.90;;;7.30;99.90;;;;;;4878429;29;20187;-80
2021/12/13 05:25:55;;;;;;;1.53;0.70;;;7.40;99.90;;;;;;4873046;29;20221;-80
2021/12/13 05:28:23;;;;;;;0.80;0.80;;;7.40;99.90;;;;;;4878323;29;20249;-80
2021/12/13 05:31:04;;;;;;;2.70;1.13;;;7.40;99.90;;;;;;4878348;29;20276;-80
2021/12/13 05:33:34;;;;;;;0.60;0.50;;;7.40;99.90;;;;;;4878647;29;20197;-79
2021/12/13 05:36:09;;;;;;;0.30;0.30;;;7.50;99.90;;;;;;4877421;29;20183;-79
2021/12/13 05:38:42;;;;;;;0.80;0.50;;;7.50;99.90;;;;;;4878520;29;20667;-80
2021/12/13 05:41:18;;;;;;;0.77;0.50;;;7.50;99.90;;;;;;4881738;29;20604;-79
2021/12/13 05:43:51;;;;;;;0.97;0.57;;;7.50;99.90;;;;;;4879233;29;20670;-81
2021/12/13 05:46:20;;;;;;;0.90;0.40;;;7.50;99.90;;;;;;4880570;29;20685;-81
2021/12/13 05:49:00;;;;;;;0.97;0.97;;;7.50;99.90;;;;;;4877182;29;20180;-81
2021/12/13 05:51:40;;;;;;;0.53;0.53;;;7.40;99.90;;;;;;4870880;29;20192;-81
2021/12/13 05:54:21;;;;;;;0.63;0.63;;;7.40;99.90;;;;;;4877307;29;20187;-79
2021/12/13 05:56:53;;;;;;;4.43;0.60;;;7.50;99.90;;;;;;4878964;29;20218;-80
2021/12/13 05:59:18;;;;;;;0.17;0.17;;;7.50;99.90;;;;;;4880815;29;20654;-79
2021/12/13 06:02:06;;;;;;;0.70;0.70;;;7.50;99.90;;;;;;4868947;29;20187;-80
2021/12/13 06:04:41;;;;;;;1.43;1.10;;;7.30;99.90;;;;;;4870573;29;20264;-80
2021/12/13 06:07:23;;;;;;;0.40;0.40;;;7.30;99.90;;;;;;4869995;29;20592;-80
2021/12/13 06:10:09;;;;;;;0.40;0.40;;;7.30;99.90;;;;;;4878048;29;20192;-80
2021/12/13 06:12:52;;;;;;;0.30;0.30;;;7.30;99.90;;;;;;4880595;29;20188;-81
2021/12/13 06:15:17;;;;;;;0.37;0.37;;;7.00;99.90;;;;;;4881877;29;20247;-80
2021/12/13 06:17:47;;;;;;;0.50;0.50;;;7.00;99.90;;;;;;4881046;29;20609;-86
2021/12/13 06:20:21;;;;;;;0.77;0.70;;;6.80;99.90;;;;;;4883104;29;20187;-81
2021/12/13 06:22:47;;;;;;;0.80;0.60;;;6.50;99.90;;;;;;4883199;29;20244;-82
2021/12/13 06:25:17;;;;;;;5.17;0.57;;;6.40;99.90;;;;;;4875939;29;20196;-81
2021/12/13 06:27:52;;;;;;;0.40;0.40;;;6.50;99.90;;;;;;4868254;29;20313;-83
2021/12/13 06:30:25;;;;;;;1.27;0.83;;;6.50;99.90;;;;;;4873685;29;20278;-80
2021/12/13 06:33:02;;;;;;;0.87;0.57;;;6.50;99.90;;;;;;4875535;29;20215;-80
2021/12/13 06:35:55;;;;;;;0.83;0.40;;;6.60;99.90;;;;;;4874940;29;20192;-80
2021/12/13 06:38:20;;;;;;;0.30;0.30;;;6.60;99.90;;;;;;4873016;29;20802;-80
2021/12/13 06:41:07;;;;;;;0.67;0.67;;;6.50;99.90;;;;;;4877487;29;20207;-80
2021/12/13 06:43:37;;;;;;;1.60;0.50;;;6.50;99.90;;;;;;4876998;29;20192;-80
2021/12/13 06:46:11;;;;;;;1.13;0.27;;;6.60;99.90;;;;;;4880657;29;20191;-79
2021/12/13 06:48:43;;;;;;;0.73;0.73;;;6.70;99.90;;;;;;4876148;29;20191;-81
2021/12/13 06:51:11;;;;;;;0.40;0.40;;;6.90;99.90;;;;;;4876185;29;20186;-79
2021/12/13 06:53:37;;;;;;;0.67;0.43;;;7.00;99.90;;;;;;4869049;29;20195;-80
2021/12/13 06:56:23;;;;;;;0.93;0.37;;;7.00;99.90;;;;;;4875700;29;20185;-80
2021/12/13 06:58:58;;;;;;;0.40;0.40;;;7.00;99.90;;;;;;4874391;29;20192;-80
2021/12/13 07:01:25;;;;;;;0.40;0.40;;;6.70;99.90;;;;;;4870406;29;20267;-81
2021/12/13 07:04:04;;;;;;;0.90;0.70;;;6.60;99.90;;;;;;4877600;29;20191;-80
2021/12/13 07:06:30;;;;;;;0.30;0.30;;;6.60;99.90;;;;;;4877160;29;20358;-80
2021/12/13 07:09:07;;;;;;;2.43;0.70;;;6.50;99.90;;;;;;4874866;29;20226;-80
2021/12/13 07:11:41;;;;;;;0.60;0.60;;;6.50;99.90;;;;;;4873210;29;20215;-80
2021/12/13 07:14:09;;;;;;;0.43;0.30;;;6.60;99.90;;;;;;4867539;29;20183;-80
2021/12/13 07:16:40;;;;;;;0.43;0.40;;;6.80;99.90;;;;;;4875940;29;20221;-80
2021/12/13 07:19:25;;;;;;;0.43;0.43;;;6.90;99.90;;;;;;4876328;29;20211;-79
2021/12/13 07:22:06;;;;;;;1.40;0.40;;;7.10;99.90;;;;;;4865309;29;20184;-79
2021/12/13 07:24:43;;;;;;;0.67;0.20;;;7.00;99.90;;;;;;4872482;29;20206;-80
2021/12/13 07:27:17;;;;;;;0.20;0.20;;;7.00;99.90;;;;;;4864838;29;20215;-82
2021/12/13 07:29:59;;;;;;;0.30;0.30;;;6.80;99.90;;;;;;4880874;29;20347;-81
2021/12/13 07:32:37;;;;;;;0.20;0.20;;;7.00;99.90;;;;;;4874819;29;20188;-82
2021/12/13 07:35:17;;;;;;;0.83;0.73;;;7.20;99.90;;;;;;4880834;29;20198;-80
2021/12/13 07:37:50;;;;;;;4.83;1.23;;;7.30;99.90;;;;;;4873813;29;20212;-81
2021/12/13 07:40:21;;;;;;;0.67;0.50;;;7.40;99.90;;;;;;4872249;29;20197;-82
2021/12/13 07:43:05;;;;;;;1.13;0.60;;;7.30;99.90;;;;;;4875170;29;20180;-85
2021/12/13 07:45:54;;;;;;;0.67;0.60;;;7.40;99.90;;;;;;4871660;29;20189;-82
2021/12/13 07:48:25;;;;;;;0.40;0.40;;;7.30;99.90;;;;;;4872682;29;20294;-81
2021/12/13 07:51:08;;;;;;;0.10;0.10;;;7.30;99.90;;;;;;4878641;29;20248;-81
2021/12/13 07:53:56;;;;;;;0.60;0.50;;;6.90;99.90;;;;;;4882747;29;20200;-81
2021/12/13 07:56:23;;;;;;;1.53;1.43;;;6.90;99.90;;;;;;4879796;29;20242;-82
2021/12/13 07:58:57;;;;;;;0.23;0.23;;;7.10;99.90;;;;;;4872155;29;20184;-82
2021/12/13 08:01:27;;;;;;;0.50;0.50;;;7.00;99.90;;;;;;4869569;29;20189;-81
2021/12/13 08:04:00;;;;;;;0.40;0.40;;;6.90;99.90;;;;;;4872889;29;20184;-81
2021/12/13 08:06:33;;;;;;;0.60;0.60;;;6.80;99.90;;;;;;4870917;29;20289;-82
2021/12/13 08:09:03;;;;;;;1.37;0.97;;;6.70;99.90;;;;;;4872970;29;20197;-79
2021/12/13 08:11:43;;;;;;;0.40;0.40;;;6.70;99.90;;;;;;4874825;29;20189;-82
2021/12/13 08:14:10;;;;;;;0.40;0.40;;;6.80;99.90;;;;;;4871474;29;20196;-80
2021/12/13 08:16:40;;;;;;;0.93;0.93;;;6.90;99.90;;;;;;4891112;29;20223;-80
2021/12/13 08:19:13;;;;;;;0.77;0.70;;;6.90;99.90;;;;;;4873590;29;20195;-81
2021/12/13 08:21:43;;;;;;;0.40;0.30;;;6.90;99.90;;;;;;4871175;29;20195;-81
2021/12/13 08:24:26;;;;;;;1.07;1.00;;;6.80;99.90;;;;;;4873655;29;20187;-80
2021/12/13 08:27:16;;;;;;;0.50;0.50;;;7.00;99.90;;;;;;4868401;29;20211;-81
2021/12/13 08:29:43;;;;;;;0.40;0.40;;;6.70;99.90;;;;;;4873325;29;20188;-81
2021/12/13 08:32:20;;;;;;;3.70;0.67;;;6.80;99.90;;;;;;4879655;29;20180;-81
2021/12/13 08:34:53;;;;;;;0.40;0.40;;;6.80;99.90;;;;;;4871520;29;20240;-81
2021/12/13 08:37:21;;;;;;;0.43;0.43;;;6.70;99.90;;;;;;4873822;29;20239;-81
2021/12/13 08:39:53;;;;;;;0.40;0.40;;;6.60;99.90;;;;;;4874808;29;20252;-81
2021/12/13 08:42:21;;;;;;;0.30;0.30;;;6.70;99.90;;;;;;4880663;29;20194;-81
2021/12/13 08:44:56;;;;;;;0.40;0.30;;;6.80;99.90;;;;;;4867513;29;20706;-80
2021/12/13 08:47:31;;;;;;;2.47;1.37;;;7.00;99.90;;;;;;4870954;29;20295;-80
2021/12/13 08:50:08;;;;;;;0.60;0.30;;;7.20;99.90;;;;;;4864515;29;20343;-81
2021/12/13 08:52:39;;;;;;;0.77;0.77;;;7.40;99.90;;;;;;4871630;29;20560;-81
2021/12/13 08:55:11;;;;;;;0.20;0.20;;;7.70;99.90;;;;;;4870706;29;20189;-80
2021/12/13 08:58:04;;;;;;;0.60;0.60;;;7.50;99.90;;;;;;4877047;29;20222;-81
2021/12/13 09:00:59;;;;;;;0.37;0.37;;;7.50;99.90;;;;;;4872508;29;20629;-81
2021/12/13 09:03:47;;;;;;;0.33;0.33;;;7.70;99.90;;;;;;4870825;29;20186;-81
2021/12/13 09:06:18;;;;;;;0.87;0.83;;;7.90;99.90;;;;;;4875927;29;20225;-80
2021/12/13 09:08:47;;;;;;;0.70;0.63;;;7.80;99.90;;;;;;4875104;29;20190;-81
2021/12/13 09:11:56;;;;;;;0.47;0.47;;;7.60;99.90;;;;;;4873433;29;20220;-79
2021/12/13 09:14:40;;;;;;;0.23;0.23;;;7.60;99.90;;;;;;4865227;29;20207;-79
2021/12/13 09:17:16;;;;;;;0.43;0.43;;;7.40;99.90;;;;;;4871739;29;20219;-81
2021/12/13 09:19:44;;;;;;;0.83;0.83;;;7.50;99.90;;;;;;4869898;29;20674;-81
2021/12/13 09:22:33;;;;;;;0.90;0.90;;;7.50;99.90;;;;;;4874589;29;20552;-80
2021/12/13 09:25:14;;;;;;;0.30;0.30;;;7.60;99.90;;;;;;4877394;29;20606;-81
2021/12/13 09:27:43;;;;;;;0.67;0.67;;;7.60;99.90;;;;;;4866846;29;20212;-82
2021/12/13 09:30:11;;;;;;;0.63;0.63;;;7.80;99.90;;;;;;4873046;29;20577;-81
2021/12/13 09:32:49;;;;;;;1.30;1.23;;;8.10;99.90;;;;;;4873327;29;20278;-80
2021/12/13 09:35:37;;;;;;;0.93;0.60;;;8.20;99.90;;;;;;4871208;29;20336;-80
2021/12/13 09:38:21;;;;;;;0.27;0.27;;;8.40;99.90;;;;;;4879287;29;20217;-81
2021/12/13 09:41:01;;;;;;;0.30;0.30;;;8.70;99.90;;;;;;4873306;29;20190;-81
2021/12/13 09:44:05;;;;;;;0.90;0.73;;;8.80;99.90;;;;;;4869082;29;20189;-80
2021/12/13 09:46:41;;;;;;;2.07;1.37;;;8.80;99.90;;;;;;4873568;29;20215;-81
2021/12/13 09:49:13;;;;;;;0.60;0.60;;;8.60;99.90;;;;;;4868985;29;20188;-83
2021/12/13 09:51:58;;;;;;;1.37;0.83;;;8.80;99.90;;;;;;4874484;29;20690;-81
2021/12/13 09:54:30;;;;;;;0.50;0.50;;;9.00;99.90;;;;;;4869914;29;20190;-81
2021/12/13 09:57:02;;;;;;;2.73;0.97;;;8.90;99.90;;;;;;4873483;29;20717;-81
2021/12/13 09:59:34;;;;;;;0.70;0.70;;;8.40;99.90;;;;;;4884335;29;20196;-81
2021/12/13 10:09:50;;;;;;;0.43;0.43;;;9.00;99.90;;;;;;5011305;23;20243;-82
2021/12/13 10:12:20;;;;;;;2.13;1.10;;;9.20;99.90;;;;;;4881585;29;20282;-83
2021/12/13 10:15:05;;;;;;;0.50;0.50;;;9.40;99.90;;;;;;4884546;29;20190;-83
2021/12/13 10:17:35;;;;;;;1.37;0.50;;;9.50;99.90;;;;;;4892941;29;20209;-82
2021/12/13 10:20:07;;;;;;;0.50;0.50;;;9.30;99.90;;;;;;4877407;29;20245;-82
2021/12/13 10:22:33;;;;;;;0.80;0.73;;;8.90;99.90;;;;;;4877030;29;20277;-82
2021/12/13 10:25:01;;;;;;;0.40;0.40;;;9.10;99.90;;;;;;4894964;29;20189;-82
2021/12/13 10:27:26;;;;;;;0.80;0.80;;;9.30;99.90;;;;;;4883198;29;20195;-82
2021/12/13 10:29:55;;;;;;;0.67;0.67;;;9.30;99.90;;;;;;4895542;29;20202;-82
2021/12/13 10:32:24;;;;;;;0.23;0.23;;;9.50;99.90;;;;;;4893779;29;20420;-82
2021/12/13 10:35:00;;;;;;;0.80;0.70;;;9.40;99.90;;;;;;4879320;29;20191;-82
2021/12/13 10:37:29;;;;;;;0.50;0.50;;;9.10;99.90;;;;;;4882395;29;20230;-82
2021/12/13 10:40:11;;;;;;;0.67;0.63;;;8.90;99.90;;;;;;4881161;29;20211;-82
2021/12/13 10:42:43;;;;;;;0.50;0.50;;;8.90;99.90;;;;;;4879686;29;20656;-82
2021/12/13 10:45:19;;;;;;;0.87;0.57;;;8.90;99.90;;;;;;4876952;29;20180;-82
2021/12/13 10:47:48;;;;;;;0.40;0.40;;;9.30;99.90;;;;;;4882626;29;20235;-82
2021/12/13 10:50:24;;;;;;;0.73;0.53;;;9.60;99.90;;;;;;4884877;29;20192;-82
2021/12/13 10:52:51;;;;;;;0.63;0.40;;;9.80;99.90;;;;;;4880811;29;20189;-82
2021/12/13 10:55:31;;;;;;;0.77;0.40;;;9.90;99.90;;;;;;4881588;29;20194;-82
2021/12/13 10:57:57;;;;;;;1.60;0.90;;;9.90;99.90;;;;;;4880641;29;20210;-82
2021/12/13 11:00:31;;;;;;;0.57;0.57;;;9.30;99.90;;;;;;4878079;29;20269;-84
2021/12/13 11:03:10;;;;;;;1.13;1.00;;;9.20;99.90;;;;;;4895341;29;20624;-84
2021/12/13 11:05:37;;;;;;;0.63;0.63;;;8.90;99.90;;;;;;4881743;29;20269;-84
2021/12/13 11:08:07;;;;;;;1.30;1.00;;;8.80;99.90;;;;;;4872244;29;20686;-83
2021/12/13 11:10:40;;;;;;;0.77;0.50;;;8.80;99.90;;;;;;4873666;29;20207;-84
2021/12/13 11:13:06;;;;;;;0.50;0.50;;;9.10;99.90;;;;;;4872686;29;20186;-84
2021/12/13 11:15:38;;;;;;;0.60;0.60;;;8.90;99.90;;;;;;4877039;29;20188;-84
2021/12/13 11:18:08;;;;;;;0.70;0.70;;;8.80;99.90;;;;;;4878568;29;20233;-84
2021/12/13 11:20:38;;;;;;;1.40;0.80;;;8.90;99.90;;;;;;4873934;29;20218;-85
2021/12/13 11:23:05;;;;;;;0.50;0.50;;;9.10;99.90;;;;;;4871096;29;20215;-84
2021/12/13 11:25:37;;;;;;;0.83;0.60;;;9.10;99.90;;;;;;4881665;29;20196;-84
2021/12/13 11:28:04;;;;;;;0.50;0.50;;;9.20;99.90;;;;;;4875916;29;20239;-85
2021/12/13 11:30:34;;;;;;;1.57;1.40;;;9.30;99.90;;;;;;4877428;29;20198;-84
2021/12/13 11:32:59;;;;;;;2.20;0.97;;;9.50;99.90;;;;;;4868431;29;20184;-85
2021/12/13 11:35:44;;;;;;;2.53;1.70;;;9.50;99.90;;;;;;4876057;29;20193;-84
2021/12/13 11:38:28;;;;;;;2.00;1.77;;;9.50;99.90;;;;;;4869711;29;20217;-86
2021/12/13 11:40:59;;;;;;;2.63;2.00;;;9.80;99.90;;;;;;4875516;29;20823;-85
2021/12/13 11:43:52;;;;;;;0.67;0.63;;;10.00;99.90;;;;;;4874598;29;20214;-85
2021/12/13 11:46:46;;;;;;;1.00;0.90;;;10.10;99.90;;;;;;4870715;29;20670;-85
2021/12/13 11:49:40;;;;;;;1.03;1.00;;;10.20;99.90;;;;;;4878224;29;20209;-85
2021/12/13 11:52:43;;;;;;;2.20;1.33;;;9.80;99.90;;;;;;4873386;29;20215;-86
2021/12/13 11:55:35;;;;;;;6.23;1.57;;;9.60;99.90;;;;;;4875379;29;20183;-84
2021/12/13 11:58:29;;;;;;;1.63;1.00;;;9.40;99.90;;;;;;4869929;29;20610;-83
2021/12/13 12:01:43;;;;;;;0.90;0.90;;;9.00;99.90;;;;;;4879931;29;20272;-84
2021/12/13 12:04:46;;;;;;;1.47;0.87;;;9.10;99.90;;;;;;4878671;29;20189;-83
2021/12/13 12:07:36;;;;;;;3.20;1.53;;;9.50;99.90;;;;;;4874402;29;20183;-83
2021/12/13 12:10:20;;;;;;;0.60;0.53;;;9.60;99.90;;;;;;4871737;29;20223;-83
2021/12/13 12:13:27;;;;;;;0.80;0.80;;;9.50;99.90;;;;;;4889513;29;20201;-83
2021/12/13 12:15:58;;;;;;;1.13;0.87;;;9.40;99.90;;;;;;4892602;29;20192;-84
2021/12/13 12:18:24;;;;;;;0.70;0.50;;;9.60;99.90;;;;;;4878680;29;20244;-84
2021/12/13 12:21:29;;;;;;;0.67;0.67;;;9.80;99.90;;;;;;4881794;29;20247;-83
2021/12/13 12:23:55;;;;;;;1.03;0.90;;;9.80;99.90;;;;;;4880143;29;20182;-83
2021/12/13 12:26:22;;;;;;;1.23;0.80;;;9.30;99.90;;;;;;4884617;29;20193;-85
2021/12/13 12:28:49;;;;;;;1.80;1.20;;;9.30;99.90;;;;;;4891567;29;20202;-84
2021/12/13 12:31:16;;;;;;;0.73;0.73;;;9.30;99.90;;;;;;4884714;29;20186;-84
2021/12/13 12:33:42;;;;;;;2.43;1.33;;;9.50;99.90;;;;;;4889517;29;20416;-84
2021/12/13 12:36:21;;;;;;;0.67;0.63;;;9.70;99.90;;;;;;4888593;29;20302;-83
2021/12/13 12:39:02;;;;;;;0.63;0.60;;;9.80;99.90;;;;;;4876185;29;20311;-81
2021/12/13 12:41:58;;;;;;;0.57;0.57;;;9.80;99.90;;;;;;4877682;29;20228;-81
2021/12/13 12:44:32;;;;;;;0.40;0.40;;;10.00;99.90;;;;;;4876261;29;20261;-83
2021/12/13 12:46:58;;;;;;;0.70;0.67;;;9.90;99.90;;;;;;4881904;29;20181;-82
2021/12/13 12:49:25;;;;;;;1.90;0.67;;;9.60;99.90;;;;;;4887753;29;20208;-82
2021/12/13 12:51:53;;;;;;;1.37;0.53;;;9.40;99.90;;;;;;4883142;29;20234;-82
2021/12/13 12:54:21;;;;;;;2.63;0.60;;;9.70;99.90;;;;;;4882509;29;20254;-82
2021/12/13 12:56:51;;;;;;;1.20;1.10;;;9.50;99.90;;;;;;4880898;29;20310;-82
2021/12/13 12:59:21;;;;;;;0.77;0.73;;;9.30;99.90;;;;;;4880328;29;20683;-85
2021/12/13 13:01:55;;;;;;;1.03;0.93;;;9.50;99.90;;;;;;4876624;29;20207;-84
2021/12/13 13:04:24;;;;;;;1.27;1.10;;;9.30;99.90;;;;;;4878046;29;20652;-85
2021/12/13 13:07:01;;;;;;;0.70;0.40;;;9.40;99.90;;;;;;4880039;29;20648;-83
2021/12/13 13:10:02;;;;;;;2.67;2.40;;;9.50;99.90;;;;;;4883580;29;20222;-83
2021/12/13 13:12:28;;;;;;;1.20;0.67;;;9.20;99.90;;;;;;4864390;29;20647;-83
2021/12/13 13:15:05;;;;;;;0.80;0.70;;;9.40;99.90;;;;;;4884444;29;20201;-83
2021/12/13 13:17:36;;;;;;;0.57;0.57;;;9.60;99.90;;;;;;4878163;29;20242;-83
2021/12/13 13:20:15;;;;;;;2.43;1.00;;;9.90;99.90;;;;;;4875789;29;20205;-83
2021/12/13 13:22:43;;;;;;;0.60;0.60;;;9.80;99.90;;;;;;4878519;29;20668;-83
2021/12/13 13:25:18;;;;;;;0.67;0.67;;;9.80;99.90;;;;;;4876370;29;20212;-83
2021/12/13 13:27:45;;;;;;;1.63;1.53;;;9.60;99.90;;;;;;4880059;29;20183;-83
2021/12/13 13:30:22;;;;;;;0.60;0.60;;;9.40;99.90;;;;;;4880690;29;20220;-83
2021/12/13 13:32:50;;;;;;;2.27;1.70;;;9.20;99.90;;;;;;4879804;29;20201;-83
2021/12/13 13:35:16;;;;;;;1.43;0.97;;;9.40;99.90;;;;;;4879148;29;20321;-83
2021/12/13 13:37:43;;;;;;;2.33;0.83;;;9.70;99.90;;;;;;4882127;29;20214;-83
2021/12/13 13:40:26;;;;;;;1.10;0.97;;;9.80;99.90;;;;;;4884606;29;20186;-82
2021/12/13 13:42:59;;;;;;;0.93;0.90;;;9.60;99.90;;;;;;4877684;29;20186;-83
2021/12/13 13:45:29;;;;;;;1.03;0.93;;;9.40;99.90;;;;;;4872308;29;20182;-83
2021/12/13 13:48:08;;;;;;;0.80;0.50;;;9.40;99.90;;;;;;4878911;29;20264;-83
2021/12/13 13:50:46;;;;;;;1.37;1.13;;;9.50;99.90;;;;;;4881500;29;20197;-83
2021/12/13 13:53:18;;;;;;;0.80;0.80;;;9.40;99.90;;;;;;4891053;29;20236;-83